sensor_id;sensor_type;location;lat;lon;timestamp;temperature;humidity
20670;DHT22;10494;50.868;4.180;2022-11-20T00:00:04;4.00;99.90
20670;DHT22;10494;50.868;4.180;2022-11-20T00:02:30;4.20;99.90
20670;DHT22;10494;50.868;4.180;2022-11-20T00:04:55;3.90;99.90
20670;DHT22;10494;50.868;4.180;2022-11-20T00:07:21;3.80;99.90
20670;DHT22;10494;50.868;4.180;2022-11-20T00:09:46;4.00;99.90
20670;DHT22;10494;50.868;4.180;2022-11-20T00:12:12;3.90;99.90
20670;DHT22;10494;50.868;4.180;2022-11-20T00:14:38;4.00;99.90
20670;DHT22;10494;50.868;4.180;2022-11-20T00:17:04;3.90;99.90
20670;DHT22;10494;50.868;4.180;2022-11-20T00:19:29;3.80;99.90
20670;DHT22;10494;50.868;4.180;2022-11-20T00:21:55;3.80;99.90
20670;DHT22;10494;50.868;4.180;2022-11-20T00:24:21;4.00;99.90
20670;DHT22;10494;50.868;4.180;2022-11-20T00:26:46;4.20;99.90
20670;DHT22;10494;50.868;4.180;2022-11-20T00:29:12;4.40;99.90
20670;DHT22;10494;50.868;4.180;2022-11-20T00:31:37;4.50;99.90
20670;DHT22;10494;50.868;4.180;2022-11-20T00:34:03;4.60;99.90
20670;DHT22;10494;50.868;4.180;2022-11-20T00:36:32;4.60;99.90
20670;DHT22;10494;50.868;4.180;2022-11-20T00:38:58;4.50;99.90
20670;DHT22;10494;50.868;4.180;2022-11-20T00:41:26;4.10;99.90
20670;DHT22;10494;50.868;4.180;2022-11-20T00:43:53;3.80;99.90
20670;DHT22;10494;50.868;4.180;2022-11-20T00:46:22;3.70;99.90
20670;DHT22;10494;50.868;4.180;2022-11-20T00:48:48;3.70;99.90
20670;DHT22;10494;50.868;4.180;2022-11-20T00:51:16;3.80;99.90
20670;DHT22;10494;50.868;4.180;2022-11-20T00:53:42;3.70;99.90
20670;DHT22;10494;50.868;4.180;2022-11-20T00:56:13;3.70;99.90
20670;DHT22;10494;50.868;4.180;2022-11-20T00:58:42;3.50;99.90
20670;DHT22;10494;50.868;4.180;2022-11-20T01:01:10;3.60;99.90
20670;DHT22;10494;50.868;4.180;2022-11-20T01:03:38;3.60;99.90
20670;DHT22;10494;50.868;4.180;2022-11-20T01:06:06;3.60;99.90
20670;DHT22;10494;50.868;4.180;2022-11-20T01:08:35;3.70;99.90
20670;DHT22;10494;50.868;4.180;2022-11-20T01:11:13;3.80;99.90
20670;DHT22;10494;50.868;4.180;2022-11-20T01:13:39;3.80;99.90
20670;DHT22;10494;50.868;4.180;2022-11-20T01:16:12;3.90;99.90
20670;DHT22;10494;50.868;4.180;2022-11-20T01:18:40;4.10;99.90
20670;DHT22;10494;50.868;4.180;2022-11-20T01:21:16;4.30;99.90
20670;DHT22;10494;50.868;4.180;2022-11-20T01:23:43;4.40;99.90
20670;DHT22;10494;50.868;4.180;2022-11-20T01:26:11;4.40;99.90
20670;DHT22;10494;50.868;4.180;2022-11-20T01:28:38;4.50;99.90
20670;DHT22;10494;50.868;4.180;2022-11-20T01:31:23;4.70;99.90
20670;DHT22;10494;50.868;4.180;2022-11-20T01:33:52;4.70;99.90
20670;DHT22;10494;50.868;4.180;2022-11-20T01:36:19;4.70;99.90
20670;DHT22;10494;50.868;4.180;2022-11-20T01:38:45;4.80;99.90
20670;DHT22;10494;50.868;4.180;2022-11-20T01:41:12;4.80;99.90
20670;DHT22;10494;50.868;4.180;2022-11-20T01:44:02;4.90;99.90
20670;DHT22;10494;50.868;4.180;2022-11-20T01:46:27;5.00;99.90
20670;DHT22;10494;50.868;4.180;2022-11-20T01:49:24;5.00;99.90
20670;DHT22;10494;50.868;4.180;2022-11-20T01:52:01;4.80;99.90
20670;DHT22;10494;50.868;4.180;2022-11-20T01:54:38;4.80;99.90
20670;DHT22;10494;50.868;4.180;2022-11-20T01:57:08;4.90;99.90
20670;DHT22;10494;50.868;4.180;2022-11-20T01:59:35;4.90;99.90
20670;DHT22;10494;50.868;4.180;2022-11-20T02:02:04;5.00;99.90
20670;DHT22;10494;50.868;4.180;2022-11-20T02:04:30;5.00;99.90
20670;DHT22;10494;50.868;4.180;2022-11-20T02:07:00;5.00;99.90
20670;DHT22;10494;50.868;4.180;2022-11-20T02:09:27;5.10;99.90
20670;DHT22;10494;50.868;4.180;2022-11-20T02:11:53;5.10;99.90
20670;DHT22;10494;50.868;4.180;2022-11-20T02:14:21;5.20;99.90
20670;DHT22;10494;50.868;4.180;2022-11-20T02:16:48;5.10;99.90
20670;DHT22;10494;50.868;4.180;2022-11-20T02:19:29;5.50;99.90
20670;DHT22;10494;50.868;4.180;2022-11-20T02:24:44;5.40;99.90
20670;DHT22;10494;50.868;4.180;2022-11-20T02:27:13;5.30;99.90
20670;DHT22;10494;50.868;4.180;2022-11-20T02:32:20;5.50;99.90
20670;DHT22;10494;50.868;4.180;2022-11-20T02:34:46;5.40;99.90
20670;DHT22;10494;50.868;4.180;2022-11-20T02:37:12;5.40;99.90
20670;DHT22;10494;50.868;4.180;2022-11-20T02:39:39;5.50;99.90
20670;DHT22;10494;50.868;4.180;2022-11-20T02:42:05;5.50;99.90
20670;DHT22;10494;50.868;4.180;2022-11-20T02:44:30;5.50;99.90
20670;DHT22;10494;50.868;4.180;2022-11-20T02:46:59;5.50;99.90
20670;DHT22;10494;50.868;4.180;2022-11-20T02:49:25;5.40;99.90
20670;DHT22;10494;50.868;4.180;2022-11-20T02:51:51;5.40;99.90
20670;DHT22;10494;50.868;4.180;2022-11-20T02:54:17;5.40;99.90
20670;DHT22;10494;50.868;4.180;2022-11-20T02:56:43;5.30;99.90
20670;DHT22;10494;50.868;4.180;2022-11-20T02:59:09;5.30;99.90
20670;DHT22;10494;50.868;4.180;2022-11-20T03:01:35;5.50;99.90
20670;DHT22;10494;50.868;4.180;2022-11-20T03:04:01;5.50;99.90
20670;DHT22;10494;50.868;4.180;2022-11-20T03:06:27;5.40;99.90
20670;DHT22;10494;50.868;4.180;2022-11-20T03:08:52;5.50;99.90
20670;DHT22;10494;50.868;4.180;2022-11-20T03:11:18;5.50;99.90
20670;DHT22;10494;50.868;4.180;2022-11-20T03:13:44;5.50;99.90
20670;DHT22;10494;50.868;4.180;2022-11-20T03:16:12;5.50;99.90
20670;DHT22;10494;50.868;4.180;2022-11-20T03:18:40;5.60;99.90
20670;DHT22;10494;50.868;4.180;2022-11-20T03:21:06;5.60;99.90
20670;DHT22;10494;50.868;4.180;2022-11-20T03:23:32;5.60;99.90
20670;DHT22;10494;50.868;4.180;2022-11-20T03:26:12;5.70;99.90
20670;DHT22;10494;50.868;4.180;2022-11-20T03:28:38;5.60;99.90
20670;DHT22;10494;50.868;4.180;2022-11-20T03:31:12;5.60;99.90
20670;DHT22;10494;50.868;4.180;2022-11-20T03:33:39;5.70;99.90
20670;DHT22;10494;50.868;4.180;2022-11-20T03:36:07;5.60;99.90
20670;DHT22;10494;50.868;4.180;2022-11-20T03:38:33;5.50;99.90
20670;DHT22;10494;50.868;4.180;2022-11-20T03:41:01;5.60;99.90
20670;DHT22;10494;50.868;4.180;2022-11-20T03:43:27;5.50;99.90
20670;DHT22;10494;50.868;4.180;2022-11-20T03:45:53;5.40;99.90
20670;DHT22;10494;50.868;4.180;2022-11-20T03:48:19;5.50;99.90
20670;DHT22;10494;50.868;4.180;2022-11-20T03:50:44;5.50;99.90
20670;DHT22;10494;50.868;4.180;2022-11-20T03:53:15;5.50;99.90
20670;DHT22;10494;50.868;4.180;2022-11-20T03:55:41;5.50;99.90
20670;DHT22;10494;50.868;4.180;2022-11-20T03:58:07;5.50;99.90
20670;DHT22;10494;50.868;4.180;2022-11-20T04:00:33;5.60;99.90
20670;DHT22;10494;50.868;4.180;2022-11-20T04:02:59;5.60;99.90
20670;DHT22;10494;50.868;4.180;2022-11-20T04:05:25;5.50;99.90
20670;DHT22;10494;50.868;4.180;2022-11-20T04:07:51;5.50;99.90
20670;DHT22;10494;50.868;4.180;2022-11-20T04:10:16;5.50;99.90
20670;DHT22;10494;50.868;4.180;2022-11-20T04:12:42;5.50;99.90
20670;DHT22;10494;50.868;4.180;2022-11-20T04:15:08;5.50;99.90
20670;DHT22;10494;50.868;4.180;2022-11-20T04:17:35;5.40;99.90
20670;DHT22;10494;50.868;4.180;2022-11-20T04:20:01;5.60;99.90
20670;DHT22;10494;50.868;4.180;2022-11-20T04:22:27;5.50;99.90
20670;DHT22;10494;50.868;4.180;2022-11-20T04:24:52;5.60;99.90
20670;DHT22;10494;50.868;4.180;2022-11-20T04:27:18;5.50;99.90
20670;DHT22;10494;50.868;4.180;2022-11-20T04:29:43;5.60;99.90
20670;DHT22;10494;50.868;4.180;2022-11-20T04:32:09;5.60;99.90
20670;DHT22;10494;50.868;4.180;2022-11-20T04:34:35;5.50;99.90
20670;DHT22;10494;50.868;4.180;2022-11-20T04:37:00;5.60;99.90
20670;DHT22;10494;50.868;4.180;2022-11-20T04:39:26;5.60;99.90
20670;DHT22;10494;50.868;4.180;2022-11-20T04:41:52;5.60;99.90
20670;DHT22;10494;50.868;4.180;2022-11-20T04:44:36;5.60;99.90
20670;DHT22;10494;50.868;4.180;2022-11-20T04:47:01;5.50;99.90
20670;DHT22;10494;50.868;4.180;2022-11-20T04:49:27;5.50;99.90
20670;DHT22;10494;50.868;4.180;2022-11-20T04:51:55;5.50;99.90
20670;DHT22;10494;50.868;4.180;2022-11-20T04:54:21;5.50;99.90
20670;DHT22;10494;50.868;4.180;2022-11-20T04:56:50;5.50;99.90
20670;DHT22;10494;50.868;4.180;2022-11-20T04:59:15;5.50;99.90
20670;DHT22;10494;50.868;4.180;2022-11-20T05:01:41;5.40;99.90
20670;DHT22;10494;50.868;4.180;2022-11-20T05:04:07;5.40;99.90
20670;DHT22;10494;50.868;4.180;2022-11-20T05:06:32;5.40;99.90
20670;DHT22;10494;50.868;4.180;2022-11-20T05:08:58;5.40;99.90
20670;DHT22;10494;50.868;4.180;2022-11-20T05:11:24;5.50;99.90
20670;DHT22;10494;50.868;4.180;2022-11-20T05:13:51;5.30;99.90
20670;DHT22;10494;50.868;4.180;2022-11-20T05:16:19;5.40;99.90
20670;DHT22;10494;50.868;4.180;2022-11-20T05:18:45;5.30;99.90
20670;DHT22;10494;50.868;4.180;2022-11-20T05:21:12;5.30;99.90
20670;DHT22;10494;50.868;4.180;2022-11-20T05:23:38;5.40;99.90
20670;DHT22;10494;50.868;4.180;2022-11-20T05:26:05;5.30;99.90
20670;DHT22;10494;50.868;4.180;2022-11-20T05:28:31;5.30;99.90
20670;DHT22;10494;50.868;4.180;2022-11-20T05:31:07;5.30;99.90
20670;DHT22;10494;50.868;4.180;2022-11-20T05:33:34;5.50;99.90
20670;DHT22;10494;50.868;4.180;2022-11-20T05:36:01;5.50;99.90
20670;DHT22;10494;50.868;4.180;2022-11-20T05:38:27;5.50;99.90
20670;DHT22;10494;50.868;4.180;2022-11-20T05:40:53;5.70;99.90
20670;DHT22;10494;50.868;4.180;2022-11-20T05:43:18;5.50;99.90
20670;DHT22;10494;50.868;4.180;2022-11-20T05:45:52;5.50;99.90
20670;DHT22;10494;50.868;4.180;2022-11-20T05:48:18;5.40;99.90
20670;DHT22;10494;50.868;4.180;2022-11-20T05:50:43;5.40;99.90
20670;DHT22;10494;50.868;4.180;2022-11-20T05:53:09;5.40;99.90
20670;DHT22;10494;50.868;4.180;2022-11-20T05:55:34;5.40;99.90
20670;DHT22;10494;50.868;4.180;2022-11-20T05:58:00;5.50;99.90
20670;DHT22;10494;50.868;4.180;2022-11-20T06:00:25;5.50;99.90
20670;DHT22;10494;50.868;4.180;2022-11-20T06:02:51;5.40;99.90
20670;DHT22;10494;50.868;4.180;2022-11-20T06:05:17;5.40;99.90
20670;DHT22;10494;50.868;4.180;2022-11-20T06:07:42;5.30;99.90
20670;DHT22;10494;50.868;4.180;2022-11-20T06:10:08;5.30;99.90
20670;DHT22;10494;50.868;4.180;2022-11-20T06:12:34;5.40;99.90
20670;DHT22;10494;50.868;4.180;2022-11-20T06:14:59;5.40;99.90
20670;DHT22;10494;50.868;4.180;2022-11-20T06:17:26;5.40;99.90
20670;DHT22;10494;50.868;4.180;2022-11-20T06:19:51;5.40;99.90
20670;DHT22;10494;50.868;4.180;2022-11-20T06:22:17;5.40;99.90
20670;DHT22;10494;50.868;4.180;2022-11-20T06:24:42;5.50;99.90
20670;DHT22;10494;50.868;4.180;2022-11-20T06:27:08;5.60;99.90
20670;DHT22;10494;50.868;4.180;2022-11-20T06:29:34;5.60;99.90
20670;DHT22;10494;50.868;4.180;2022-11-20T06:32:00;5.70;99.90
20670;DHT22;10494;50.868;4.180;2022-11-20T06:34:26;5.70;99.90
20670;DHT22;10494;50.868;4.180;2022-11-20T06:36:52;5.80;99.90
20670;DHT22;10494;50.868;4.180;2022-11-20T06:39:17;5.90;99.90
20670;DHT22;10494;50.868;4.180;2022-11-20T06:41:43;5.90;99.90
20670;DHT22;10494;50.868;4.180;2022-11-20T06:44:08;5.90;99.90
20670;DHT22;10494;50.868;4.180;2022-11-20T06:46:34;5.90;99.90
20670;DHT22;10494;50.868;4.180;2022-11-20T06:48:59;6.00;99.90
20670;DHT22;10494;50.868;4.180;2022-11-20T06:51:25;6.10;99.90
20670;DHT22;10494;50.868;4.180;2022-11-20T06:53:50;6.10;99.90
20670;DHT22;10494;50.868;4.180;2022-11-20T06:56:16;6.00;99.90
20670;DHT22;10494;50.868;4.180;2022-11-20T06:58:42;6.00;99.90
20670;DHT22;10494;50.868;4.180;2022-11-20T07:01:11;5.80;99.90
20670;DHT22;10494;50.868;4.180;2022-11-20T07:03:37;5.80;99.90
20670;DHT22;10494;50.868;4.180;2022-11-20T07:06:04;5.90;99.90
20670;DHT22;10494;50.868;4.180;2022-11-20T07:08:29;5.70;99.90
20670;DHT22;10494;50.868;4.180;2022-11-20T07:11:00;5.60;99.90
20670;DHT22;10494;50.868;4.180;2022-11-20T07:13:26;5.70;99.90
20670;DHT22;10494;50.868;4.180;2022-11-20T07:15:52;5.80;99.90
20670;DHT22;10494;50.868;4.180;2022-11-20T07:18:18;5.60;99.90
20670;DHT22;10494;50.868;4.180;2022-11-20T07:20:43;5.70;99.90
20670;DHT22;10494;50.868;4.180;2022-11-20T07:23:09;5.80;99.90
20670;DHT22;10494;50.868;4.180;2022-11-20T07:25:34;5.80;99.90
20670;DHT22;10494;50.868;4.180;2022-11-20T07:28:01;5.60;99.90
20670;DHT22;10494;50.868;4.180;2022-11-20T07:30:27;5.70;99.90
20670;DHT22;10494;50.868;4.180;2022-11-20T07:32:54;5.70;99.90
20670;DHT22;10494;50.868;4.180;2022-11-20T07:35:21;5.70;99.90
20670;DHT22;10494;50.868;4.180;2022-11-20T07:37:46;5.80;99.90
20670;DHT22;10494;50.868;4.180;2022-11-20T07:40:14;5.70;99.90
20670;DHT22;10494;50.868;4.180;2022-11-20T07:42:47;5.80;99.90
20670;DHT22;10494;50.868;4.180;2022-11-20T07:45:13;5.70;99.90
20670;DHT22;10494;50.868;4.180;2022-11-20T07:47:39;5.80;99.90
20670;DHT22;10494;50.868;4.180;2022-11-20T07:50:05;5.90;99.90
20670;DHT22;10494;50.868;4.180;2022-11-20T07:52:30;5.80;99.90
20670;DHT22;10494;50.868;4.180;2022-11-20T07:54:56;6.00;99.90
20670;DHT22;10494;50.868;4.180;2022-11-20T07:57:21;6.00;99.90
20670;DHT22;10494;50.868;4.180;2022-11-20T07:59:47;5.90;99.90
20670;DHT22;10494;50.868;4.180;2022-11-20T08:02:13;5.90;99.90
20670;DHT22;10494;50.868;4.180;2022-11-20T08:04:38;6.10;99.90
20670;DHT22;10494;50.868;4.180;2022-11-20T08:07:04;6.30;99.90
20670;DHT22;10494;50.868;4.180;2022-11-20T08:09:29;6.30;99.90
20670;DHT22;10494;50.868;4.180;2022-11-20T08:11:55;6.20;99.90
20670;DHT22;10494;50.868;4.180;2022-11-20T08:14:39;6.30;99.90
20670;DHT22;10494;50.868;4.180;2022-11-20T08:17:05;6.30;99.90
20670;DHT22;10494;50.868;4.180;2022-11-20T08:19:30;6.40;99.90
20670;DHT22;10494;50.868;4.180;2022-11-20T08:21:56;6.30;99.90
20670;DHT22;10494;50.868;4.180;2022-11-20T08:24:21;6.20;99.90
20670;DHT22;10494;50.868;4.180;2022-11-20T08:26:47;6.20;99.90
20670;DHT22;10494;50.868;4.180;2022-11-20T08:29:12;6.20;99.90
20670;DHT22;10494;50.868;4.180;2022-11-20T08:31:38;6.40;99.90
20670;DHT22;10494;50.868;4.180;2022-11-20T08:34:04;6.30;99.90
20670;DHT22;10494;50.868;4.180;2022-11-20T08:36:33;6.30;99.90
20670;DHT22;10494;50.868;4.180;2022-11-20T08:38:58;6.50;99.90
20670;DHT22;10494;50.868;4.180;2022-11-20T08:41:24;6.50;99.90
20670;DHT22;10494;50.868;4.180;2022-11-20T08:43:58;6.50;99.90
20670;DHT22;10494;50.868;4.180;2022-11-20T08:46:26;6.50;99.90
20670;DHT22;10494;50.868;4.180;2022-11-20T08:48:52;6.60;99.90
20670;DHT22;10494;50.868;4.180;2022-11-20T08:51:18;6.70;99.90
20670;DHT22;10494;50.868;4.180;2022-11-20T08:53:44;6.80;99.90
20670;DHT22;10494;50.868;4.180;2022-11-20T08:56:10;6.70;99.90
20670;DHT22;10494;50.868;4.180;2022-11-20T08:58:37;6.80;99.90
20670;DHT22;10494;50.868;4.180;2022-11-20T09:01:02;6.80;99.90
20670;DHT22;10494;50.868;4.180;2022-11-20T09:03:28;7.00;99.90
20670;DHT22;10494;50.868;4.180;2022-11-20T09:06:01;7.00;99.90
20670;DHT22;10494;50.868;4.180;2022-11-20T09:08:28;7.20;99.90
20670;DHT22;10494;50.868;4.180;2022-11-20T09:10:54;7.10;99.90
20670;DHT22;10494;50.868;4.180;2022-11-20T09:13:21;7.20;99.90
20670;DHT22;10494;50.868;4.180;2022-11-20T09:15:47;7.30;99.90
20670;DHT22;10494;50.868;4.180;2022-11-20T09:18:12;7.30;99.90
20670;DHT22;10494;50.868;4.180;2022-11-20T09:20:38;7.30;99.90
20670;DHT22;10494;50.868;4.180;2022-11-20T09:23:04;7.40;99.90
20670;DHT22;10494;50.868;4.180;2022-11-20T09:25:30;7.50;99.90
20670;DHT22;10494;50.868;4.180;2022-11-20T09:27:59;7.50;99.90
20670;DHT22;10494;50.868;4.180;2022-11-20T09:30:25;7.60;99.90
20670;DHT22;10494;50.868;4.180;2022-11-20T09:32:52;7.60;99.90
20670;DHT22;10494;50.868;4.180;2022-11-20T09:35:17;7.70;99.90
20670;DHT22;10494;50.868;4.180;2022-11-20T09:37:44;7.70;99.90
20670;DHT22;10494;50.868;4.180;2022-11-20T09:40:23;7.70;99.90
20670;DHT22;10494;50.868;4.180;2022-11-20T09:43:10;7.90;99.90
20670;DHT22;10494;50.868;4.180;2022-11-20T09:45:53;7.90;99.90
20670;DHT22;10494;50.868;4.180;2022-11-20T09:54:00;8.20;99.90
20670;DHT22;10494;50.868;4.180;2022-11-20T09:56:30;8.30;99.90
20670;DHT22;10494;50.868;4.180;2022-11-20T09:59:00;8.20;99.90
20670;DHT22;10494;50.868;4.180;2022-11-20T10:01:31;8.20;99.90
20670;DHT22;10494;50.868;4.180;2022-11-20T10:04:15;8.20;99.90
20670;DHT22;10494;50.868;4.180;2022-11-20T10:07:07;8.20;99.90
20670;DHT22;10494;50.868;4.180;2022-11-20T10:09:46;8.30;99.90
20670;DHT22;10494;50.868;4.180;2022-11-20T10:12:38;8.50;99.90
20670;DHT22;10494;50.868;4.180;2022-11-20T10:17:59;8.70;99.90
20670;DHT22;10494;50.868;4.180;2022-11-20T10:20:54;9.00;99.90
20670;DHT22;10494;50.868;4.180;2022-11-20T10:29:07;9.10;99.90
20670;DHT22;10494;50.868;4.180;2022-11-20T10:31:38;9.20;99.90
20670;DHT22;10494;50.868;4.180;2022-11-20T10:34:24;9.30;99.90
20670;DHT22;10494;50.868;4.180;2022-11-20T10:37:11;9.40;99.90
20670;DHT22;10494;50.868;4.180;2022-11-20T10:39:45;9.50;99.90
20670;DHT22;10494;50.868;4.180;2022-11-20T10:42:34;9.60;99.90
20670;DHT22;10494;50.868;4.180;2022-11-20T10:45:15;9.50;99.90
20670;DHT22;10494;50.868;4.180;2022-11-20T10:47:44;9.40;99.90
20670;DHT22;10494;50.868;4.180;2022-11-20T10:50:14;9.40;99.90
20670;DHT22;10494;50.868;4.180;2022-11-20T10:55:30;9.40;99.90
20670;DHT22;10494;50.868;4.180;2022-11-20T11:00:33;9.40;99.90
20670;DHT22;10494;50.868;4.180;2022-11-20T11:02:59;9.50;99.90
20670;DHT22;10494;50.868;4.180;2022-11-20T11:08:14;9.50;99.90
20670;DHT22;10494;50.868;4.180;2022-11-20T11:11:40;9.60;99.90
20670;DHT22;10494;50.868;4.180;2022-11-20T11:14:10;9.70;99.90
20670;DHT22;10494;50.868;4.180;2022-11-20T11:16:52;9.60;99.90
20670;DHT22;10494;50.868;4.180;2022-11-20T11:19:19;9.60;99.90
20670;DHT22;10494;50.868;4.180;2022-11-20T11:21:50;9.60;99.90
20670;DHT22;10494;50.868;4.180;2022-11-20T11:24:28;9.60;99.90
20670;DHT22;10494;50.868;4.180;2022-11-20T11:26:59;9.60;99.90
20670;DHT22;10494;50.868;4.180;2022-11-20T11:29:30;9.40;99.90
20670;DHT22;10494;50.868;4.180;2022-11-20T11:32:18;9.40;99.90
20670;DHT22;10494;50.868;4.180;2022-11-20T11:34:44;9.30;99.90
20670;DHT22;10494;50.868;4.180;2022-11-20T11:37:17;9.20;99.90
20670;DHT22;10494;50.868;4.180;2022-11-20T11:39:44;9.30;99.90
20670;DHT22;10494;50.868;4.180;2022-11-20T11:42:17;9.20;99.90
20670;DHT22;10494;50.868;4.180;2022-11-20T11:44:47;9.10;99.90
20670;DHT22;10494;50.868;4.180;2022-11-20T11:47:45;9.20;99.90
20670;DHT22;10494;50.868;4.180;2022-11-20T11:58:24;9.00;99.90
20670;DHT22;10494;50.868;4.180;2022-11-20T12:01:02;9.00;99.90
20670;DHT22;10494;50.868;4.180;2022-11-20T12:03:39;8.90;99.90
20670;DHT22;10494;50.868;4.180;2022-11-20T12:06:14;8.90;99.90
20670;DHT22;10494;50.868;4.180;2022-11-20T12:08:44;8.70;99.90
20670;DHT22;10494;50.868;4.180;2022-11-20T12:11:47;8.70;99.90
20670;DHT22;10494;50.868;4.180;2022-11-20T12:14:24;8.60;99.90
20670;DHT22;10494;50.868;4.180;2022-11-20T12:16:52;8.50;99.90
20670;DHT22;10494;50.868;4.180;2022-11-20T12:19:19;8.50;99.90
20670;DHT22;10494;50.868;4.180;2022-11-20T12:21:56;8.50;99.90
20670;DHT22;10494;50.868;4.180;2022-11-20T12:30:15;8.50;99.90
20670;DHT22;10494;50.868;4.180;2022-11-20T12:50:19;8.40;99.90
20670;DHT22;10494;50.868;4.180;2022-11-20T12:52:56;8.30;99.90
20670;DHT22;10494;50.868;4.180;2022-11-20T12:55:30;8.50;99.90
20670;DHT22;10494;50.868;4.180;2022-11-20T12:58:04;8.50;99.90
20670;DHT22;10494;50.868;4.180;2022-11-20T13:00:34;8.60;99.90
20670;DHT22;10494;50.868;4.180;2022-11-20T13:05:54;8.60;99.90
20670;DHT22;10494;50.868;4.180;2022-11-20T13:08:27;8.60;99.90
20670;DHT22;10494;50.868;4.180;2022-11-20T13:11:10;8.50;99.90
20670;DHT22;10494;50.868;4.180;2022-11-20T13:16:32;8.40;99.90
20670;DHT22;10494;50.868;4.180;2022-11-20T13:19:10;8.50;99.90
20670;DHT22;10494;50.868;4.180;2022-11-20T13:21:39;8.50;99.90
20670;DHT22;10494;50.868;4.180;2022-11-20T13:24:20;8.40;99.90
20670;DHT22;10494;50.868;4.180;2022-11-20T13:29:35;8.30;99.90
20670;DHT22;10494;50.868;4.180;2022-11-20T13:34:38;8.30;99.90
20670;DHT22;10494;50.868;4.180;2022-11-20T13:37:04;8.20;99.90
20670;DHT22;10494;50.868;4.180;2022-11-20T13:39:34;8.10;99.90
20670;DHT22;10494;50.868;4.180;2022-11-20T13:42:18;8.20;99.90
20670;DHT22;10494;50.868;4.180;2022-11-20T13:44:54;8.20;99.90
20670;DHT22;10494;50.868;4.180;2022-11-20T13:47:25;8.30;99.90
20670;DHT22;10494;50.868;4.180;2022-11-20T13:49:52;8.40;99.90
20670;DHT22;10494;50.868;4.180;2022-11-20T14:00:55;8.40;99.90
20670;DHT22;10494;50.868;4.180;2022-11-20T14:03:23;8.30;99.90
20670;DHT22;10494;50.868;4.180;2022-11-20T14:05:56;8.30;99.90
20670;DHT22;10494;50.868;4.180;2022-11-20T14:08:34;8.30;99.90
20670;DHT22;10494;50.868;4.180;2022-11-20T14:13:58;8.40;99.90
20670;DHT22;10494;50.868;4.180;2022-11-20T14:16:25;8.40;99.90
20670;DHT22;10494;50.868;4.180;2022-11-20T14:18:52;8.40;99.90
20670;DHT22;10494;50.868;4.180;2022-11-20T14:21:28;8.40;99.90
20670;DHT22;10494;50.868;4.180;2022-11-20T14:24:05;8.30;99.90
20670;DHT22;10494;50.868;4.180;2022-11-20T14:26:31;8.40;99.90
20670;DHT22;10494;50.868;4.180;2022-11-20T14:28:58;8.50;99.90
20670;DHT22;10494;50.868;4.180;2022-11-20T14:31:25;8.50;99.90
20670;DHT22;10494;50.868;4.180;2022-11-20T14:33:55;8.50;99.90
20670;DHT22;10494;50.868;4.180;2022-11-20T14:36:23;8.50;99.90
20670;DHT22;10494;50.868;4.180;2022-11-20T14:38:50;8.50;99.90
20670;DHT22;10494;50.868;4.180;2022-11-20T14:41:19;8.50;99.90
20670;DHT22;10494;50.868;4.180;2022-11-20T14:43:47;8.50;99.90
20670;DHT22;10494;50.868;4.180;2022-11-20T14:46:13;8.50;99.90
20670;DHT22;10494;50.868;4.180;2022-11-20T14:48:46;8.60;99.90
20670;DHT22;10494;50.868;4.180;2022-11-20T14:51:35;8.60;99.90
20670;DHT22;10494;50.868;4.180;2022-11-20T14:56:38;8.70;99.90
20670;DHT22;10494;50.868;4.180;2022-11-20T14:59:04;8.60;99.90
20670;DHT22;10494;50.868;4.180;2022-11-20T15:01:31;8.80;99.90
20670;DHT22;10494;50.868;4.180;2022-11-20T15:04:09;8.70;99.90
20670;DHT22;10494;50.868;4.180;2022-11-20T15:06:36;8.90;99.90
20670;DHT22;10494;50.868;4.180;2022-11-20T15:09:12;8.90;99.90
20670;DHT22;10494;50.868;4.180;2022-11-20T15:11:38;9.00;99.90
20670;DHT22;10494;50.868;4.180;2022-11-20T15:14:09;8.90;99.90
20670;DHT22;10494;50.868;4.180;2022-11-20T15:16:35;9.00;99.90
20670;DHT22;10494;50.868;4.180;2022-11-20T15:19:17;8.90;99.90
20670;DHT22;10494;50.868;4.180;2022-11-20T15:21:44;9.00;99.90
20670;DHT22;10494;50.868;4.180;2022-11-20T15:24:09;9.10;99.90
20670;DHT22;10494;50.868;4.180;2022-11-20T15:26:37;9.10;99.90
20670;DHT22;10494;50.868;4.180;2022-11-20T15:29:04;9.00;99.90
20670;DHT22;10494;50.868;4.180;2022-11-20T15:31:30;9.10;99.90
20670;DHT22;10494;50.868;4.180;2022-11-20T15:33:55;9.20;99.90
20670;DHT22;10494;50.868;4.180;2022-11-20T15:36:21;9.20;99.90
20670;DHT22;10494;50.868;4.180;2022-11-20T15:38:46;9.20;99.90
20670;DHT22;10494;50.868;4.180;2022-11-20T15:41:12;9.10;99.90
20670;DHT22;10494;50.868;4.180;2022-11-20T15:43:38;9.20;99.90
20670;DHT22;10494;50.868;4.180;2022-11-20T15:46:09;9.30;99.90
20670;DHT22;10494;50.868;4.180;2022-11-20T15:48:44;9.30;99.90
20670;DHT22;10494;50.868;4.180;2022-11-20T15:53:37;9.40;99.90
20670;DHT22;10494;50.868;4.180;2022-11-20T15:56:03;9.40;99.90
20670;DHT22;10494;50.868;4.180;2022-11-20T15:58:29;9.30;99.90
20670;DHT22;10494;50.868;4.180;2022-11-20T16:00:55;9.30;99.90
20670;DHT22;10494;50.868;4.180;2022-11-20T16:03:20;9.60;99.90
20670;DHT22;10494;50.868;4.180;2022-11-20T16:05:46;9.50;99.90
20670;DHT22;10494;50.868;4.180;2022-11-20T16:08:12;9.70;99.90
20670;DHT22;10494;50.868;4.180;2022-11-20T16:10:38;9.80;99.90
20670;DHT22;10494;50.868;4.180;2022-11-20T16:13:04;9.70;99.90
20670;DHT22;10494;50.868;4.180;2022-11-20T16:15:57;9.70;99.90
20670;DHT22;10494;50.868;4.180;2022-11-20T16:18:23;9.80;99.90
20670;DHT22;10494;50.868;4.180;2022-11-20T16:20:51;9.90;99.90
20670;DHT22;10494;50.868;4.180;2022-11-20T16:23:17;9.90;99.90
20670;DHT22;10494;50.868;4.180;2022-11-20T16:25:44;9.80;99.90
20670;DHT22;10494;50.868;4.180;2022-11-20T16:28:10;9.80;99.90
20670;DHT22;10494;50.868;4.180;2022-11-20T16:30:36;9.60;99.90
20670;DHT22;10494;50.868;4.180;2022-11-20T16:33:03;9.60;99.90
20670;DHT22;10494;50.868;4.180;2022-11-20T16:35:30;9.60;99.90
20670;DHT22;10494;50.868;4.180;2022-11-20T16:37:56;9.60;99.90
20670;DHT22;10494;50.868;4.180;2022-11-20T16:40:22;9.50;99.90
20670;DHT22;10494;50.868;4.180;2022-11-20T16:42:48;9.60;99.90
20670;DHT22;10494;50.868;4.180;2022-11-20T16:45:14;9.60;99.90
20670;DHT22;10494;50.868;4.180;2022-11-20T16:47:40;9.60;99.90
20670;DHT22;10494;50.868;4.180;2022-11-20T16:50:06;9.90;99.90
20670;DHT22;10494;50.868;4.180;2022-11-20T16:52:32;9.90;99.90
20670;DHT22;10494;50.868;4.180;2022-11-20T16:54:58;9.70;99.90
20670;DHT22;10494;50.868;4.180;2022-11-20T16:57:24;9.80;99.90
20670;DHT22;10494;50.868;4.180;2022-11-20T16:59:49;9.70;99.90
20670;DHT22;10494;50.868;4.180;2022-11-20T17:02:15;9.80;99.90
20670;DHT22;10494;50.868;4.180;2022-11-20T17:04:41;9.80;99.90
20670;DHT22;10494;50.868;4.180;2022-11-20T17:07:07;9.80;99.90
20670;DHT22;10494;50.868;4.180;2022-11-20T17:09:33;9.70;99.90
20670;DHT22;10494;50.868;4.180;2022-11-20T17:11:58;9.70;99.90
20670;DHT22;10494;50.868;4.180;2022-11-20T17:14:24;9.80;99.90
20670;DHT22;10494;50.868;4.180;2022-11-20T17:16:50;9.50;99.90
20670;DHT22;10494;50.868;4.180;2022-11-20T17:19:15;9.40;99.90
20670;DHT22;10494;50.868;4.180;2022-11-20T17:21:41;9.40;99.90